sensor_id;sensor_type;location;lat;lon;timestamp;temperature;humidity
48998;DHT22;34807;51.456;7.244;2023-04-03T00:00:18;5.90;96.60
48998;DHT22;34807;51.456;7.244;2023-04-03T00:02:43;5.90;96.50
48998;DHT22;34807;51.456;7.244;2023-04-03T00:05:09;5.90;96.50
48998;DHT22;34807;51.456;7.244;2023-04-03T00:07:35;5.90;96.50
48998;DHT22;34807;51.456;7.244;2023-04-03T00:10:01;5.90;96.50
48998;DHT22;34807;51.456;7.244;2023-04-03T00:12:26;5.90;96.40
48998;DHT22;34807;51.456;7.244;2023-04-03T00:14:52;5.90;96.50
48998;DHT22;34807;51.456;7.244;2023-04-03T00:17:17;5.90;96.50
48998;DHT22;34807;51.456;7.244;2023-04-03T00:19:43;5.80;96.50
48998;DHT22;34807;51.456;7.244;2023-04-03T00:22:08;5.80;96.40
48998;DHT22;34807;51.456;7.244;2023-04-03T00:24:34;5.80;96.40
48998;DHT22;34807;51.456;7.244;2023-04-03T00:26:59;5.80;96.40
48998;DHT22;34807;51.456;7.244;2023-04-03T00:29:25;5.80;96.40
48998;DHT22;34807;51.456;7.244;2023-04-03T00:31:50;5.80;96.40
48998;DHT22;34807;51.456;7.244;2023-04-03T00:34:16;5.70;96.30
48998;DHT22;34807;51.456;7.244;2023-04-03T00:36:41;5.70;96.30
48998;DHT22;34807;51.456;7.244;2023-04-03T00:39:07;5.70;96.30
48998;DHT22;34807;51.456;7.244;2023-04-03T00:41:32;5.70;96.30
48998;DHT22;34807;51.456;7.244;2023-04-03T00:43:58;5.70;96.30
48998;DHT22;34807;51.456;7.244;2023-04-03T00:46:23;5.60;96.30
48998;DHT22;34807;51.456;7.244;2023-04-03T00:48:49;5.60;96.30
48998;DHT22;34807;51.456;7.244;2023-04-03T00:51:20;5.60;96.30
48998;DHT22;34807;51.456;7.244;2023-04-03T00:53:55;5.60;96.30
48998;DHT22;34807;51.456;7.244;2023-04-03T00:56:23;5.60;96.30
48998;DHT22;34807;51.456;7.244;2023-04-03T00:58:54;5.60;96.30
48998;DHT22;34807;51.456;7.244;2023-04-03T01:01:21;5.60;96.20
48998;DHT22;34807;51.456;7.244;2023-04-03T01:03:48;5.60;96.20
48998;DHT22;34807;51.456;7.244;2023-04-03T01:06:14;5.50;96.20
48998;DHT22;34807;51.456;7.244;2023-04-03T01:08:41;5.50;96.20
48998;DHT22;34807;51.456;7.244;2023-04-03T01:11:07;5.50;96.20
48998;DHT22;34807;51.456;7.244;2023-04-03T01:13:32;5.50;96.10
48998;DHT22;34807;51.456;7.244;2023-04-03T01:16:01;5.50;96.20
48998;DHT22;34807;51.456;7.244;2023-04-03T01:18:28;5.40;96.10
48998;DHT22;34807;51.456;7.244;2023-04-03T01:23:44;5.40;96.10
48998;DHT22;34807;51.456;7.244;2023-04-03T01:26:14;5.40;96.10
48998;DHT22;34807;51.456;7.244;2023-04-03T01:28:40;5.40;96.10
48998;DHT22;34807;51.456;7.244;2023-04-03T01:33:43;5.30;96.10
48998;DHT22;34807;51.456;7.244;2023-04-03T01:36:10;5.30;96.10
48998;DHT22;34807;51.456;7.244;2023-04-03T01:38:35;5.30;96.10
48998;DHT22;34807;51.456;7.244;2023-04-03T01:41:01;5.30;96.00
48998;DHT22;34807;51.456;7.244;2023-04-03T01:43:26;5.30;96.00
48998;DHT22;34807;51.456;7.244;2023-04-03T01:45:52;5.30;96.00
48998;DHT22;34807;51.456;7.244;2023-04-03T01:48:19;5.30;96.00
48998;DHT22;34807;51.456;7.244;2023-04-03T01:50:45;5.30;96.00
48998;DHT22;34807;51.456;7.244;2023-04-03T01:53:11;5.20;96.00
48998;DHT22;34807;51.456;7.244;2023-04-03T01:55:37;5.30;96.00
48998;DHT22;34807;51.456;7.244;2023-04-03T01:58:02;5.30;96.00
48998;DHT22;34807;51.456;7.244;2023-04-03T02:00:28;5.20;96.00
48998;DHT22;34807;51.456;7.244;2023-04-03T02:02:53;5.20;96.00
48998;DHT22;34807;51.456;7.244;2023-04-03T02:05:19;5.20;96.00
48998;DHT22;34807;51.456;7.244;2023-04-03T02:07:44;5.20;96.00
48998;DHT22;34807;51.456;7.244;2023-04-03T02:10:11;5.20;96.10
48998;DHT22;34807;51.456;7.244;2023-04-03T02:12:36;5.20;96.00
48998;DHT22;34807;51.456;7.244;2023-04-03T02:15:02;5.20;96.10
48998;DHT22;34807;51.456;7.244;2023-04-03T02:17:27;5.20;96.10
48998;DHT22;34807;51.456;7.244;2023-04-03T02:19:53;5.20;96.00
48998;DHT22;34807;51.456;7.244;2023-04-03T02:22:18;5.10;96.00
48998;DHT22;34807;51.456;7.244;2023-04-03T02:24:45;5.10;96.00
48998;DHT22;34807;51.456;7.244;2023-04-03T02:27:10;5.10;96.10
48998;DHT22;34807;51.456;7.244;2023-04-03T02:29:36;5.10;96.10
48998;DHT22;34807;51.456;7.244;2023-04-03T02:32:02;5.10;96.10
48998;DHT22;34807;51.456;7.244;2023-04-03T02:34:27;5.10;96.10
48998;DHT22;34807;51.456;7.244;2023-04-03T02:36:53;5.10;96.00
48998;DHT22;34807;51.456;7.244;2023-04-03T02:39:18;5.00;96.10
48998;DHT22;34807;51.456;7.244;2023-04-03T02:41:44;5.00;96.10
48998;DHT22;34807;51.456;7.244;2023-04-03T02:44:10;5.00;96.00
48998;DHT22;34807;51.456;7.244;2023-04-03T02:46:36;5.00;96.00
48998;DHT22;34807;51.456;7.244;2023-04-03T02:49:01;5.00;96.00
48998;DHT22;34807;51.456;7.244;2023-04-03T02:51:27;5.00;96.00
48998;DHT22;34807;51.456;7.244;2023-04-03T02:53:53;5.00;96.00
48998;DHT22;34807;51.456;7.244;2023-04-03T02:56:18;4.90;96.30
48998;DHT22;34807;51.456;7.244;2023-04-03T02:58:44;4.90;96.10
48998;DHT22;34807;51.456;7.244;2023-04-03T03:01:10;4.90;96.10
48998;DHT22;34807;51.456;7.244;2023-04-03T03:03:36;5.00;96.10
48998;DHT22;34807;51.456;7.244;2023-04-03T03:06:02;4.90;96.10
48998;DHT22;34807;51.456;7.244;2023-04-03T03:08:28;4.90;96.10
48998;DHT22;34807;51.456;7.244;2023-04-03T03:10:53;4.90;96.10
48998;DHT22;34807;51.456;7.244;2023-04-03T03:13:19;4.90;96.00
48998;DHT22;34807;51.456;7.244;2023-04-03T03:15:44;4.90;96.00
48998;DHT22;34807;51.456;7.244;2023-04-03T03:18:10;4.90;96.00
48998;DHT22;34807;51.456;7.244;2023-04-03T03:20:35;4.80;96.00
48998;DHT22;34807;51.456;7.244;2023-04-03T03:23:01;4.80;96.00
48998;DHT22;34807;51.456;7.244;2023-04-03T03:25:26;4.90;96.00
48998;DHT22;34807;51.456;7.244;2023-04-03T03:27:52;4.80;96.10
48998;DHT22;34807;51.456;7.244;2023-04-03T03:30:17;4.80;96.10
48998;DHT22;34807;51.456;7.244;2023-04-03T03:32:43;4.80;96.10
48998;DHT22;34807;51.456;7.244;2023-04-03T03:35:08;4.80;96.00
48998;DHT22;34807;51.456;7.244;2023-04-03T03:37:34;4.80;96.00
48998;DHT22;34807;51.456;7.244;2023-04-03T03:39:59;4.80;96.00
48998;DHT22;34807;51.456;7.244;2023-04-03T03:42:25;4.80;96.00
48998;DHT22;34807;51.456;7.244;2023-04-03T03:44:50;4.70;96.00
48998;DHT22;34807;51.456;7.244;2023-04-03T03:47:17;4.70;96.00
48998;DHT22;34807;51.456;7.244;2023-04-03T03:49:42;4.70;96.00
48998;DHT22;34807;51.456;7.244;2023-04-03T03:52:08;4.70;96.00
48998;DHT22;34807;51.456;7.244;2023-04-03T03:54:36;4.70;96.00
48998;DHT22;34807;51.456;7.244;2023-04-03T03:57:02;4.70;95.90
48998;DHT22;34807;51.456;7.244;2023-04-03T03:59:27;4.70;95.90
48998;DHT22;34807;51.456;7.244;2023-04-03T04:01:53;4.70;95.90
48998;DHT22;34807;51.456;7.244;2023-04-03T04:04:18;4.60;95.90
48998;DHT22;34807;51.456;7.244;2023-04-03T04:06:44;4.70;96.00
48998;DHT22;34807;51.456;7.244;2023-04-03T04:09:10;4.60;95.90
48998;DHT22;34807;51.456;7.244;2023-04-03T04:11:35;4.70;95.90
48998;DHT22;34807;51.456;7.244;2023-04-03T04:14:01;4.60;95.90
48998;DHT22;34807;51.456;7.244;2023-04-03T04:16:26;4.60;95.90
48998;DHT22;34807;51.456;7.244;2023-04-03T04:18:52;4.60;95.90
48998;DHT22;34807;51.456;7.244;2023-04-03T04:21:17;4.60;95.90
48998;DHT22;34807;51.456;7.244;2023-04-03T04:23:43;4.60;95.90
48998;DHT22;34807;51.456;7.244;2023-04-03T04:26:08;4.60;95.80
48998;DHT22;34807;51.456;7.244;2023-04-03T04:28:34;4.60;95.80
48998;DHT22;34807;51.456;7.244;2023-04-03T04:30:59;4.50;95.90
48998;DHT22;34807;51.456;7.244;2023-04-03T04:33:25;4.50;95.90
48998;DHT22;34807;51.456;7.244;2023-04-03T04:35:50;4.50;95.90
48998;DHT22;34807;51.456;7.244;2023-04-03T04:38:17;4.50;95.80
48998;DHT22;34807;51.456;7.244;2023-04-03T04:40:42;4.60;95.90
48998;DHT22;34807;51.456;7.244;2023-04-03T04:43:08;4.50;95.80
48998;DHT22;34807;51.456;7.244;2023-04-03T04:45:33;4.50;96.10
48998;DHT22;34807;51.456;7.244;2023-04-03T04:47:59;4.50;95.80
48998;DHT22;34807;51.456;7.244;2023-04-03T04:50:24;4.50;95.80
48998;DHT22;34807;51.456;7.244;2023-04-03T04:52:50;4.50;95.80
48998;DHT22;34807;51.456;7.244;2023-04-03T04:55:15;4.50;95.80
48998;DHT22;34807;51.456;7.244;2023-04-03T04:57:41;4.50;95.80
48998;DHT22;34807;51.456;7.244;2023-04-03T05:00:06;4.50;95.80
48998;DHT22;34807;51.456;7.244;2023-04-03T05:02:32;4.50;95.80
48998;DHT22;34807;51.456;7.244;2023-04-03T05:04:58;4.50;95.80
48998;DHT22;34807;51.456;7.244;2023-04-03T05:07:24;4.40;95.80
48998;DHT22;34807;51.456;7.244;2023-04-03T05:09:49;4.50;95.80
48998;DHT22;34807;51.456;7.244;2023-04-03T05:12:15;4.40;96.00
48998;DHT22;34807;51.456;7.244;2023-04-03T05:14:41;4.40;95.70
48998;DHT22;34807;51.456;7.244;2023-04-03T05:17:06;4.40;95.80
48998;DHT22;34807;51.456;7.244;2023-04-03T05:19:32;4.40;95.70
48998;DHT22;34807;51.456;7.244;2023-04-03T05:21:57;4.40;95.80
48998;DHT22;34807;51.456;7.244;2023-04-03T05:24:23;4.40;95.70
48998;DHT22;34807;51.456;7.244;2023-04-03T05:26:48;4.40;95.70
48998;DHT22;34807;51.456;7.244;2023-04-03T05:29:14;4.40;95.80
48998;DHT22;34807;51.456;7.244;2023-04-03T05:31:39;4.40;95.80
48998;DHT22;34807;51.456;7.244;2023-04-03T05:34:05;4.40;95.70
48998;DHT22;34807;51.456;7.244;2023-04-03T05:36:31;4.40;95.70
48998;DHT22;34807;51.456;7.244;2023-04-03T05:38:56;4.30;95.70
48998;DHT22;34807;51.456;7.244;2023-04-03T05:41:22;4.40;95.70
48998;DHT22;34807;51.456;7.244;2023-04-03T05:43:47;4.30;95.70
48998;DHT22;34807;51.456;7.244;2023-04-03T05:46:14;4.40;95.70
48998;DHT22;34807;51.456;7.244;2023-04-03T05:48:40;4.30;95.70
48998;DHT22;34807;51.456;7.244;2023-04-03T05:51:06;4.40;95.70
48998;DHT22;34807;51.456;7.244;2023-04-03T05:53:33;4.30;95.70
48998;DHT22;34807;51.456;7.244;2023-04-03T05:56:00;4.40;95.80
48998;DHT22;34807;51.456;7.244;2023-04-03T05:58:26;4.30;95.70
48998;DHT22;34807;51.456;7.244;2023-04-03T06:00:51;4.30;95.80
48998;DHT22;34807;51.456;7.244;2023-04-03T06:03:17;4.30;95.90
48998;DHT22;34807;51.456;7.244;2023-04-03T06:05:43;4.40;95.70
48998;DHT22;34807;51.456;7.244;2023-04-03T06:08:08;4.40;95.70
48998;DHT22;34807;51.456;7.244;2023-04-03T06:10:34;4.40;95.70
48998;DHT22;34807;51.456;7.244;2023-04-03T06:13:00;4.40;95.70
48998;DHT22;34807;51.456;7.244;2023-04-03T06:15:25;4.40;95.70
48998;DHT22;34807;51.456;7.244;2023-04-03T06:17:51;4.40;95.70
48998;DHT22;34807;51.456;7.244;2023-04-03T06:20:16;4.40;95.70
48998;DHT22;34807;51.456;7.244;2023-04-03T06:22:42;4.40;95.70
48998;DHT22;34807;51.456;7.244;2023-04-03T06:25:07;4.40;95.70
48998;DHT22;34807;51.456;7.244;2023-04-03T06:27:34;4.40;95.70
48998;DHT22;34807;51.456;7.244;2023-04-03T06:30:00;4.40;95.70
48998;DHT22;34807;51.456;7.244;2023-04-03T06:32:25;4.40;95.70
48998;DHT22;34807;51.456;7.244;2023-04-03T06:34:51;4.40;95.70
48998;DHT22;34807;51.456;7.244;2023-04-03T06:37:19;4.50;95.70
48998;DHT22;34807;51.456;7.244;2023-04-03T06:39:45;4.50;95.60
48998;DHT22;34807;51.456;7.244;2023-04-03T06:42:10;4.50;95.60
48998;DHT22;34807;51.456;7.244;2023-04-03T06:44:36;4.40;95.70
48998;DHT22;34807;51.456;7.244;2023-04-03T06:47:02;4.40;95.70
48998;DHT22;34807;51.456;7.244;2023-04-03T06:49:27;4.50;95.80
48998;DHT22;34807;51.456;7.244;2023-04-03T06:51:54;4.50;95.80
48998;DHT22;34807;51.456;7.244;2023-04-03T06:54:19;4.50;95.70
48998;DHT22;34807;51.456;7.244;2023-04-03T06:56:45;4.50;95.70
48998;DHT22;34807;51.456;7.244;2023-04-03T06:59:11;4.50;95.70
48998;DHT22;34807;51.456;7.244;2023-04-03T07:01:38;4.50;95.70
48998;DHT22;34807;51.456;7.244;2023-04-03T07:04:04;4.50;95.70
48998;DHT22;34807;51.456;7.244;2023-04-03T07:06:30;4.60;95.60
48998;DHT22;34807;51.456;7.244;2023-04-03T07:08:57;4.60;95.60
48998;DHT22;34807;51.456;7.244;2023-04-03T07:11:23;4.70;95.50
48998;DHT22;34807;51.456;7.244;2023-04-03T07:13:48;4.70;95.40
48998;DHT22;34807;51.456;7.244;2023-04-03T07:16:14;4.70;95.40
48998;DHT22;34807;51.456;7.244;2023-04-03T07:18:39;4.80;95.40
48998;DHT22;34807;51.456;7.244;2023-04-03T07:21:05;4.80;95.30
48998;DHT22;34807;51.456;7.244;2023-04-03T07:23:31;4.90;95.30
48998;DHT22;34807;51.456;7.244;2023-04-03T07:25:56;4.90;95.20
48998;DHT22;34807;51.456;7.244;2023-04-03T07:28:22;4.90;95.20
48998;DHT22;34807;51.456;7.244;2023-04-03T07:30:51;4.90;95.20
48998;DHT22;34807;51.456;7.244;2023-04-03T07:33:17;5.00;95.20
48998;DHT22;34807;51.456;7.244;2023-04-03T07:35:43;5.10;95.20
48998;DHT22;34807;51.456;7.244;2023-04-03T07:38:10;5.10;95.20
48998;DHT22;34807;51.456;7.244;2023-04-03T07:40:35;5.10;95.20
48998;DHT22;34807;51.456;7.244;2023-04-03T07:43:01;5.20;95.20
48998;DHT22;34807;51.456;7.244;2023-04-03T07:45:27;5.20;95.20
48998;DHT22;34807;51.456;7.244;2023-04-03T07:47:53;5.20;95.20
48998;DHT22;34807;51.456;7.244;2023-04-03T07:50:19;5.30;95.10
48998;DHT22;34807;51.456;7.244;2023-04-03T07:52:44;5.30;95.10
48998;DHT22;34807;51.456;7.244;2023-04-03T07:55:10;5.40;95.00
48998;DHT22;34807;51.456;7.244;2023-04-03T07:57:36;5.50;95.00
48998;DHT22;34807;51.456;7.244;2023-04-03T08:00:05;5.50;95.00
48998;DHT22;34807;51.456;7.244;2023-04-03T08:02:31;5.60;95.00
48998;DHT22;34807;51.456;7.244;2023-04-03T08:04:59;5.70;94.70
48998;DHT22;34807;51.456;7.244;2023-04-03T08:07:25;5.70;94.60
48998;DHT22;34807;51.456;7.244;2023-04-03T08:09:50;5.70;94.40
48998;DHT22;34807;51.456;7.244;2023-04-03T08:12:16;5.80;94.60
48998;DHT22;34807;51.456;7.244;2023-04-03T08:14:41;5.80;94.40
48998;DHT22;34807;51.456;7.244;2023-04-03T08:17:07;5.90;94.30
48998;DHT22;34807;51.456;7.244;2023-04-03T08:19:39;6.00;94.30
48998;DHT22;34807;51.456;7.244;2023-04-03T08:22:05;6.00;94.40
48998;DHT22;34807;51.456;7.244;2023-04-03T08:24:32;6.10;94.30
48998;DHT22;34807;51.456;7.244;2023-04-03T08:26:57;6.10;94.20
48998;DHT22;34807;51.456;7.244;2023-04-03T08:29:23;6.20;94.10
48998;DHT22;34807;51.456;7.244;2023-04-03T08:31:49;6.20;94.10
48998;DHT22;34807;51.456;7.244;2023-04-03T08:34:15;6.30;94.10
48998;DHT22;34807;51.456;7.244;2023-04-03T08:36:41;6.30;94.00
48998;DHT22;34807;51.456;7.244;2023-04-03T08:39:07;6.30;94.10
48998;DHT22;34807;51.456;7.244;2023-04-03T08:46:42;6.40;93.90
48998;DHT22;34807;51.456;7.244;2023-04-03T08:49:19;6.40;93.80
48998;DHT22;34807;51.456;7.244;2023-04-03T08:51:46;6.40;93.80
48998;DHT22;34807;51.456;7.244;2023-04-03T08:55:17;6.50;93.80
48998;DHT22;34807;51.456;7.244;2023-04-03T08:57:09;6.50;93.60
48998;DHT22;34807;51.456;7.244;2023-04-03T08:59:36;6.50;93.50
48998;DHT22;34807;51.456;7.244;2023-04-03T09:02:04;6.50;93.80
48998;DHT22;34807;51.456;7.244;2023-04-03T09:04:38;6.50;93.90
48998;DHT22;34807;51.456;7.244;2023-04-03T09:07:08;6.50;93.70
48998;DHT22;34807;51.456;7.244;2023-04-03T09:09:39;6.50;93.70
48998;DHT22;34807;51.456;7.244;2023-04-03T09:17:17;6.60;93.70
48998;DHT22;34807;51.456;7.244;2023-04-03T09:24:38;6.60;93.60
48998;DHT22;34807;51.456;7.244;2023-04-03T09:27:04;6.60;93.70
48998;DHT22;34807;51.456;7.244;2023-04-03T09:29:38;6.60;93.70
48998;DHT22;34807;51.456;7.244;2023-04-03T09:32:14;6.60;93.90
48998;DHT22;34807;51.456;7.244;2023-04-03T09:34:43;6.60;94.00
48998;DHT22;34807;51.456;7.244;2023-04-03T09:37:09;6.60;93.80
48998;DHT22;34807;51.456;7.244;2023-04-03T09:39:50;6.60;93.90
48998;DHT22;34807;51.456;7.244;2023-04-03T09:42:18;6.60;93.80
48998;DHT22;34807;51.456;7.244;2023-04-03T09:44:48;6.70;93.80
48998;DHT22;34807;51.456;7.244;2023-04-03T09:47:19;6.70;94.00
48998;DHT22;34807;51.456;7.244;2023-04-03T09:49:48;6.70;93.90
48998;DHT22;34807;51.456;7.244;2023-04-03T09:52:23;6.70;93.80
48998;DHT22;34807;51.456;7.244;2023-04-03T09:54:49;6.70;93.80
48998;DHT22;34807;51.456;7.244;2023-04-03T09:57:15;6.70;93.70
48998;DHT22;34807;51.456;7.244;2023-04-03T09:59:42;6.70;93.80
48998;DHT22;34807;51.456;7.244;2023-04-03T10:02:22;6.70;93.80
48998;DHT22;34807;51.456;7.244;2023-04-03T10:04:48;6.70;93.90
48998;DHT22;34807;51.456;7.244;2023-04-03T10:09:59;6.70;93.80
48998;DHT22;34807;51.456;7.244;2023-04-03T10:12:25;6.70;93.80
48998;DHT22;34807;51.456;7.244;2023-04-03T10:22:18;6.80;93.50
48998;DHT22;34807;51.456;7.244;2023-04-03T10:29:54;6.80;94.10
48998;DHT22;34807;51.456;7.244;2023-04-03T10:34:58;6.90;94.20
48998;DHT22;34807;51.456;7.244;2023-04-03T10:37:27;7.00;94.20
48998;DHT22;34807;51.456;7.244;2023-04-03T10:42:46;7.00;94.00
48998;DHT22;34807;51.456;7.244;2023-04-03T10:52:55;7.30;94.20
48998;DHT22;34807;51.456;7.244;2023-04-03T10:57:52;7.50;94.40
48998;DHT22;34807;51.456;7.244;2023-04-03T11:00:20;7.60;94.50
48998;DHT22;34807;51.456;7.244;2023-04-03T11:02:59;7.70;94.50
48998;DHT22;34807;51.456;7.244;2023-04-03T11:07:56;7.90;94.30
48998;DHT22;34807;51.456;7.244;2023-04-03T11:12:59;8.20;94.20
48998;DHT22;34807;51.456;7.244;2023-04-03T11:15:27;8.30;94.20
48998;DHT22;34807;51.456;7.244;2023-04-03T11:17:55;8.50;94.30
48998;DHT22;34807;51.456;7.244;2023-04-03T11:20:25;8.50;94.00
48998;DHT22;34807;51.456;7.244;2023-04-03T11:25:36;8.70;93.80
48998;DHT22;34807;51.456;7.244;2023-04-03T11:28:04;8.90;94.00
48998;DHT22;34807;51.456;7.244;2023-04-03T11:35:59;9.20;93.70
48998;DHT22;34807;51.456;7.244;2023-04-03T11:38:36;9.20;92.90
48998;DHT22;34807;51.456;7.244;2023-04-03T11:41:04;9.30;93.50
48998;DHT22;34807;51.456;7.244;2023-04-03T11:43:32;9.40;93.30
48998;DHT22;34807;51.456;7.244;2023-04-03T11:46:04;9.50;93.50
48998;DHT22;34807;51.456;7.244;2023-04-03T11:50:57;9.60;92.80
48998;DHT22;34807;51.456;7.244;2023-04-03T11:53:33;9.70;93.40
48998;DHT22;34807;51.456;7.244;2023-04-03T11:56:00;9.70;93.30
48998;DHT22;34807;51.456;7.244;2023-04-03T11:58:33;9.80;93.50
48998;DHT22;34807;51.456;7.244;2023-04-03T12:00:59;9.90;93.30
48998;DHT22;34807;51.456;7.244;2023-04-03T12:13:33;10.10;93.90
48998;DHT22;34807;51.456;7.244;2023-04-03T12:15:59;10.10;93.80
48998;DHT22;34807;51.456;7.244;2023-04-03T12:21:06;10.20;93.90
48998;DHT22;34807;51.456;7.244;2023-04-03T12:23:33;10.20;94.20
48998;DHT22;34807;51.456;7.244;2023-04-03T12:26:04;10.30;94.20
48998;DHT22;34807;51.456;7.244;2023-04-03T12:28:36;10.30;94.20
48998;DHT22;34807;51.456;7.244;2023-04-03T12:31:03;10.30;94.30
48998;DHT22;34807;51.456;7.244;2023-04-03T12:33:33;10.40;94.50
48998;DHT22;34807;51.456;7.244;2023-04-03T12:46:44;10.50;94.70
48998;DHT22;34807;51.456;7.244;2023-04-03T12:49:18;10.50;94.60
48998;DHT22;34807;51.456;7.244;2023-04-03T12:51:47;10.60;94.80
48998;DHT22;34807;51.456;7.244;2023-04-03T12:56:39;10.60;94.90
48998;DHT22;34807;51.456;7.244;2023-04-03T12:59:19;10.70;94.20
48998;DHT22;34807;51.456;7.244;2023-04-03T13:01:52;10.60;93.50
48998;DHT22;34807;51.456;7.244;2023-04-03T13:04:18;10.70;94.70
48998;DHT22;34807;51.456;7.244;2023-04-03T13:06:44;10.70;95.00
48998;DHT22;34807;51.456;7.244;2023-04-03T13:09:23;10.80;95.10
48998;DHT22;34807;51.456;7.244;2023-04-03T13:11:49;10.70;95.20
48998;DHT22;34807;51.456;7.244;2023-04-03T13:14:16;10.80;95.30
48998;DHT22;34807;51.456;7.244;2023-04-03T13:16:52;10.80;95.10
48998;DHT22;34807;51.456;7.244;2023-04-03T13:19:17;10.80;95.30
48998;DHT22;34807;51.456;7.244;2023-04-03T13:21:43;10.90;96.10
48998;DHT22;34807;51.456;7.244;2023-04-03T13:24:10;10.90;95.90
48998;DHT22;34807;51.456;7.244;2023-04-03T13:26:37;10.90;94.90
48998;DHT22;34807;51.456;7.244;2023-04-03T13:29:05;10.90;95.60
48998;DHT22;34807;51.456;7.244;2023-04-03T13:31:32;10.90;95.80
48998;DHT22;34807;51.456;7.244;2023-04-03T13:36:34;11.00;95.60
48998;DHT22;34807;51.456;7.244;2023-04-03T13:41:36;11.10;95.90
48998;DHT22;34807;51.456;7.244;2023-04-03T13:47:01;11.10;96.10
48998;DHT22;34807;51.456;7.244;2023-04-03T13:49:40;11.20;96.20
48998;DHT22;34807;51.456;7.244;2023-04-03T13:54:58;11.30;96.40
48998;DHT22;34807;51.456;7.244;2023-04-03T13:57:23;11.30;95.90
48998;DHT22;34807;51.456;7.244;2023-04-03T13:59:49;11.30;95.10
48998;DHT22;34807;51.456;7.244;2023-04-03T14:02:20;11.40;95.90
48998;DHT22;34807;51.456;7.244;2023-04-03T14:04:48;11.40;95.40
48998;DHT22;34807;51.456;7.244;2023-04-03T14:07:15;11.40;95.60
48998;DHT22;34807;51.456;7.244;2023-04-03T14:09:41;11.40;95.50
48998;DHT22;34807;51.456;7.244;2023-04-03T14:12:08;11.40;95.70
48998;DHT22;34807;51.456;7.244;2023-04-03T14:14:35;11.40;96.30
48998;DHT22;34807;51.456;7.244;2023-04-03T14:17:02;11.40;95.80
48998;DHT22;34807;51.456;7.244;2023-04-03T14:19:29;11.40;96.50
48998;DHT22;34807;51.456;7.244;2023-04-03T14:21:55;11.50;96.00
48998;DHT22;34807;51.456;7.244;2023-04-03T14:24:21;11.50;95.40
48998;DHT22;34807;51.456;7.244;2023-04-03T14:26:47;11.50;96.30
48998;DHT22;34807;51.456;7.244;2023-04-03T14:29:13;11.50;96.30
48998;DHT22;34807;51.456;7.244;2023-04-03T14:31:40;11.50;95.50
48998;DHT22;34807;51.456;7.244;2023-04-03T14:34:06;11.50;95.60
48998;DHT22;34807;51.456;7.244;2023-04-03T14:36:33;11.60;95.90
48998;DHT22;34807;51.456;7.244;2023-04-03T14:38:59;11.50;96.20
48998;DHT22;34807;51.456;7.244;2023-04-03T14:41:26;11.60;95.50
48998;DHT22;34807;51.456;7.244;2023-04-03T14:43:51;11.60;95.30
48998;DHT22;34807;51.456;7.244;2023-04-03T14:46:19;11.70;92.70
48998;DHT22;34807;51.456;7.244;2023-04-03T14:48:46;11.70;91.50
48998;DHT22;34807;51.456;7.244;2023-04-03T14:51:11;11.80;91.10
48998;DHT22;34807;51.456;7.244;2023-04-03T14:53:37;11.80;90.10
48998;DHT22;34807;51.456;7.244;2023-04-03T14:56:05;11.90;90.40
48998;DHT22;34807;51.456;7.244;2023-04-03T14:58:35;12.00;90.10
48998;DHT22;34807;51.456;7.244;2023-04-03T15:01:02;12.10;89.80
48998;DHT22;34807;51.456;7.244;2023-04-03T15:03:27;12.30;88.80
48998;DHT22;34807;51.456;7.244;2023-04-03T15:05:53;12.30;88.40
48998;DHT22;34807;51.456;7.244;2023-04-03T15:08:20;12.50;88.30
48998;DHT22;34807;51.456;7.244;2023-04-03T15:10:46;12.70;87.70
48998;DHT22;34807;51.456;7.244;2023-04-03T15:13:12;12.80;87.10
48998;DHT22;34807;51.456;7.244;2023-04-03T15:15:37;13.00;87.20
48998;DHT22;34807;51.456;7.244;2023-04-03T15:18:03;13.20;87.00
48998;DHT22;34807;51.456;7.244;2023-04-03T15:20:29;13.30;86.40
48998;DHT22;34807;51.456;7.244;2023-04-03T15:22:56;13.60;85.80
48998;DHT22;34807;51.456;7.244;2023-04-03T15:25:22;13.70;85.10
48998;DHT22;34807;51.456;7.244;2023-04-03T15:27:48;13.90;84.80
48998;DHT22;34807;51.456;7.244;2023-04-03T15:30:14;14.10;84.20
48998;DHT22;34807;51.456;7.244;2023-04-03T15:32:41;14.30;84.00
48998;DHT22;34807;51.456;7.244;2023-04-03T15:35:07;14.40;84.10
48998;DHT22;34807;51.456;7.244;2023-04-03T15:37:32;14.50;83.60
48998;DHT22;34807;51.456;7.244;2023-04-03T15:39:58;14.70;83.50
48998;DHT22;34807;51.456;7.244;2023-04-03T15:42:23;14.80;83.20
48998;DHT22;34807;51.456;7.244;2023-04-03T15:44:49;14.90;83.20
48998;DHT22;34807;51.456;7.244;2023-04-03T15:47:14;15.10;82.90
48998;DHT22;34807;51.456;7.244;2023-04-03T15:49:40;15.20;83.20
48998;DHT22;34807;51.456;7.244;2023-04-03T15:52:06;15.30;83.10
48998;DHT22;34807;51.456;7.244;2023-04-03T15:54:31;15.50;83.20
48998;DHT22;34807;51.456;7.244;2023-04-03T15:56:57;15.50;82.90
48998;DHT22;34807;51.456;7.244;2023-04-03T15:59:22;15.70;82.40
48998;DHT22;34807;51.456;7.244;2023-04-03T16:01:48;15.90;82.40
48998;DHT22;34807;51.456;7.244;2023-04-03T16:04:15;16.10;82.00
48998;DHT22;34807;51.456;7.244;2023-04-03T16:06:41;16.30;81.40
48998;DHT22;34807;51.456;7.244;2023-04-03T16:09:07;16.40;81.10
48998;DHT22;34807;51.456;7.244;2023-04-03T16:11:33;16.50;80.90
48998;DHT22;34807;51.456;7.244;2023-04-03T16:14:00;16.70;80.30
48998;DHT22;34807;51.456;7.244;2023-04-03T16:16:26;16.90;79.60
48998;DHT22;34807;51.456;7.244;2023-04-03T16:18:53;17.10;78.90
48998;DHT22;34807;51.456;7.244;2023-04-03T16:21:18;17.30;78.20
48998;DHT22;34807;51.456;7.244;2023-04-03T16:23:44;17.60;77.70
48998;DHT22;34807;51.456;7.244;2023-04-03T16:26:10;17.70;77.00
48998;DHT22;34807;51.456;7.244;2023-04-03T16:28:35;18.00;76.50
48998;DHT22;34807;51.456;7.244;2023-04-03T16:31:01;18.10;76.40
48998;DHT22;34807;51.456;7.244;2023-04-03T16:33:27;18.20;76.50
48998;DHT22;34807;51.456;7.244;2023-04-03T16:35:52;18.40;76.30
48998;DHT22;34807;51.456;7.244;2023-04-03T16:38:18;18.50;76.00
48998;DHT22;34807;51.456;7.244;2023-04-03T16:40:47;18.70;76.00
48998;DHT22;34807;51.456;7.244;2023-04-03T16:43:14;18.80;75.30
48998;DHT22;34807;51.456;7.244;2023-04-03T16:45:40;19.00;75.10
48998;DHT22;34807;51.456;7.244;2023-04-03T16:48:05;19.10;74.30
48998;DHT22;34807;51.456;7.244;2023-04-03T16:50:31;19.20;73.80
48998;DHT22;34807;51.456;7.244;2023-04-03T16:52:56;19.30;73.50
48998;DHT22;34807;51.456;7.244;2023-04-03T16:55:22;19.40;73.60
48998;DHT22;34807;51.456;7.244;2023-04-03T16:57:47;19.40;73.30
48998;DHT22;34807;51.456;7.244;2023-04-03T17:00:13;19.50;73.10
48998;DHT22;34807;51.456;7.244;2023-04-03T17:02:39;19.40;73.10
48998;DHT22;34807;51.456;7.244;2023-04-03T17:05:05;19.10;73.40
48998;DHT22;34807;51.456;7.244;2023-04-03T17:07:31;18.80;74.50
48998;DHT22;34807;51.456;7.244;2023-04-03T17:09:57;18.30;75.00
48998;DHT22;34807;51.456;7.244;2023-04-03T17:12:23;17.90;76.40
48998;DHT22;34807;51.456;7.244;2023-04-03T17:14:48;17.50;77.20
48998;DHT22;34807;51.456;7.244;2023-04-03T17:17:14;17.10;79.20
48998;DHT22;34807;51.456;7.244;2023-04-03T17:19:40;16.80;80.70
48998;DHT22;34807;51.456;7.244;2023-04-03T17:22:07;16.50;80.50